Time;durP1;ratioP1;P1;durP2;ratioP2;P2;SDS_P1;SDS_P2;PMS_P1;PMS_P2;Temp;Humidity;BMP_temperature;BMP_pressure;BME280_temperature;BME280_humidity;BME280_pressure;Samples;Min_cycle;Max_cycle;Signal;HPM_P1;HPM_P2
2021/10/21 00:01:04;;;;;;;;;;;14.30;99.90;;;;;;5057841;28;20064;-62
2021/10/21 00:03:30;;;;;;;3.08;1.98;;;14.30;99.90;;;;;;5064987;28;19917;-62
2021/10/21 00:05:56;;;;;;;;;;;14.30;99.90;;;;;;5064448;28;20036;-63
2021/10/21 00:08:21;;;;;;;4.20;2.08;;;14.30;99.90;;;;;;5063089;28;20368;-63
2021/10/21 00:10:49;;;;;;;5.97;2.22;;;14.30;99.90;;;;;;5066029;28;20047;-63
2021/10/21 00:13:14;;;;;;;5.55;2.38;;;14.30;99.90;;;;;;5056961;28;20362;-62
2021/10/21 00:15:40;;;;;;;;;;;14.30;99.90;;;;;;5063933;28;20033;-62
2021/10/21 00:18:05;;;;;;;2.90;1.98;;;14.30;99.90;;;;;;5054538;28;19920;-63
2021/10/21 00:20:31;;;;;;;4.28;2.08;;;14.30;99.90;;;;;;5049641;28;20203;-63
2021/10/21 00:22:56;;;;;;;;;;;14.30;99.90;;;;;;5047345;28;20095;-62
2021/10/21 00:25:22;;;;;;;4.18;2.10;;;14.30;99.90;;;;;;5048795;28;19917;-62
2021/10/21 00:27:48;;;;;;;;;;;14.30;99.90;;;;;;5051689;28;20615;-62
2021/10/21 00:30:14;;;;;;;8.73;3.85;;;14.30;99.90;;;;;;5049138;28;19928;-62
2021/10/21 00:32:42;;;;;;;10.05;2.80;;;14.30;99.90;;;;;;5048497;28;20045;-63
2021/10/21 00:35:08;;;;;;;16.95;7.28;;;14.30;99.90;;;;;;5048243;28;20382;-63
2021/10/21 00:37:34;;;;;;;6.15;2.67;;;14.30;99.90;;;;;;5047046;28;20142;-62
2021/10/21 00:39:59;;;;;;;;;;;14.30;99.90;;;;;;5050254;28;20096;-62
2021/10/21 00:42:25;;;;;;;8.05;3.10;;;14.30;99.90;;;;;;5052116;28;19996;-62
2021/10/21 00:44:50;;;;;;;;;;;14.30;99.90;;;;;;5051084;28;20150;-63
2021/10/21 00:47:16;;;;;;;4.38;2.40;;;14.30;99.90;;;;;;5032905;28;19929;-65
2021/10/21 00:49:42;;;;;;;;;;;14.30;99.90;;;;;;5029070;28;20565;-63
2021/10/21 00:52:07;;;;;;;8.52;2.58;;;14.30;99.90;;;;;;5029453;28;19924;-62
2021/10/21 00:54:34;;;;;;;;;;;14.30;99.90;;;;;;5030497;28;20045;-62
2021/10/21 00:57:02;;;;;;;5.13;2.53;;;14.30;99.90;;;;;;5029509;28;19917;-62
2021/10/21 00:59:30;;;;;;;3.72;2.10;;;14.30;99.90;;;;;;5038549;28;20056;-62
2021/10/21 01:01:57;;;;;;;2.80;2.17;;;14.30;99.90;;;;;;5050291;28;20123;-63
2021/10/21 01:04:23;;;;;;;5.43;2.35;;;14.30;99.90;;;;;;5051355;28;20072;-64
2021/10/21 01:06:49;;;;;;;;;;;14.30;99.90;;;;;;5050628;28;20079;-63
2021/10/21 01:09:16;;;;;;;6.63;2.28;;;14.30;99.90;;;;;;5051023;28;20034;-61
2021/10/21 01:11:42;;;;;;;7.03;1.92;;;14.30;99.90;;;;;;5052044;28;20128;-62
2021/10/21 01:14:08;;;;;;;;;;;14.20;99.90;;;;;;5051789;28;20140;-64
2021/10/21 01:16:37;;;;;;;14.07;3.20;;;14.30;99.90;;;;;;5049369;28;19917;-63
2021/10/21 01:19:03;;;;;;;3.03;2.10;;;14.20;99.90;;;;;;5048050;28;20083;-63
2021/10/21 01:21:28;;;;;;;;;;;14.20;99.90;;;;;;5051412;28;20460;-63
2021/10/21 01:23:54;;;;;;;5.70;2.20;;;14.10;99.90;;;;;;5043210;28;19921;-64
2021/10/21 01:26:20;;;;;;;6.90;2.60;;;14.10;99.90;;;;;;5048943;28;20080;-63
2021/10/21 01:28:46;;;;;;;;;;;14.00;99.90;;;;;;5051666;28;20087;-64
2021/10/21 01:31:11;;;;;;;5.35;2.67;;;13.80;99.90;;;;;;5039032;28;19917;-64
2021/10/21 01:33:37;;;;;;;;;;;13.70;99.90;;;;;;5039315;28;20132;-64
2021/10/21 01:36:04;;;;;;;4.32;2.47;;;13.60;99.90;;;;;;5047641;28;20349;-63
2021/10/21 01:38:30;;;;;;;5.45;2.60;;;13.50;99.90;;;;;;5046560;28;20512;-63
2021/10/21 01:40:56;;;;;;;4.32;1.85;;;13.40;99.90;;;;;;5048190;28;20116;-63
2021/10/21 01:43:21;;;;;;;;;;;13.40;99.90;;;;;;5048563;28;20208;-63
2021/10/21 01:45:47;;;;;;;3.92;1.83;;;13.30;99.90;;;;;;5048586;28;19927;-65
2021/10/21 01:48:16;;;;;;;;;;;13.30;99.90;;;;;;5048258;28;20413;-64
2021/10/21 01:50:41;;;;;;;3.28;2.08;;;13.30;99.90;;;;;;5047018;28;19921;-63
2021/10/21 01:53:07;;;;;;;;;;;13.30;99.90;;;;;;5047285;28;20040;-63
2021/10/21 01:55:32;;;;;;;4.25;1.63;;;13.30;99.90;;;;;;5045672;28;20034;-64
2021/10/21 01:57:58;;;;;;;;;;;13.30;99.90;;;;;;5050947;28;20033;-63
2021/10/21 02:00:24;;;;;;;3.20;1.30;;;13.20;99.90;;;;;;5040402;28;20407;-63
2021/10/21 02:02:51;;;;;;;2.70;1.02;;;13.20;99.90;;;;;;5049088;28;20037;-63
2021/10/21 02:05:18;;;;;;;1.40;1.00;;;13.20;99.90;;;;;;5050170;28;20045;-63
2021/10/21 02:07:45;;;;;;;2.75;1.20;;;13.20;99.90;;;;;;5047568;28;20053;-63
2021/10/21 02:10:13;;;;;;;3.13;1.23;;;13.20;99.90;;;;;;5050961;28;20048;-64
2021/10/21 02:12:39;;;;;;;2.22;1.10;;;13.20;99.90;;;;;;5050561;28;20116;-64
2021/10/21 02:15:05;;;;;;;;;;;13.20;99.90;;;;;;5049206;28;20254;-64
2021/10/21 02:17:30;;;;;;;2.25;1.27;;;13.20;99.90;;;;;;5038241;28;19917;-65
2021/10/21 02:19:56;;;;;;;;;;;13.20;99.90;;;;;;5047401;28;20045;-64
2021/10/21 02:22:22;;;;;;;1.85;1.15;;;13.20;99.90;;;;;;5045268;28;19943;-64
2021/10/21 02:24:47;;;;;;;;;;;13.20;99.90;;;;;;5039181;28;20036;-64
2021/10/21 02:27:13;;;;;;;2.08;1.20;;;13.10;99.90;;;;;;5049107;28;19925;-65
2021/10/21 02:29:39;;;;;;;;;;;13.10;99.90;;;;;;5048719;28;20045;-65
2021/10/21 02:32:05;;;;;;;1.75;0.90;;;13.10;99.90;;;;;;5048595;28;20546;-64
2021/10/21 02:34:30;;;;;;;2.20;1.00;;;13.00;99.90;;;;;;5050194;28;20036;-65
2021/10/21 02:36:57;;;;;;;;;;;13.00;99.90;;;;;;5047204;28;20044;-64
2021/10/21 02:39:23;;;;;;;6.23;0.73;;;12.90;99.90;;;;;;5046544;28;19968;-64
2021/10/21 02:41:49;;;;;;;2.88;0.77;;;12.90;99.90;;;;;;5049050;28;20048;-63
2021/10/21 02:44:15;;;;;;;;;;;12.70;99.90;;;;;;5049722;28;20110;-64
2021/10/21 02:46:40;;;;;;;2.60;1.00;;;12.60;99.90;;;;;;5037032;28;19932;-64
2021/10/21 02:49:06;;;;;;;;;;;12.60;99.90;;;;;;5047189;28;20045;-64
2021/10/21 02:51:31;;;;;;;4.47;0.75;;;12.60;99.90;;;;;;5046303;28;19917;-64
2021/10/21 02:53:57;;;;;;;;;;;12.40;99.90;;;;;;5050194;28;20120;-64
2021/10/21 02:56:23;;;;;;;3.47;0.50;;;12.40;99.90;;;;;;5048524;28;19959;-63
2021/10/21 02:58:48;;;;;;;;;;;12.40;99.90;;;;;;5048138;28;20111;-62
2021/10/21 03:01:14;;;;;;;1.98;0.57;;;12.30;99.90;;;;;;5044987;28;20538;-63
2021/10/21 03:03:40;;;;;;;;;;;12.20;99.90;;;;;;5050551;28;20452;-63
2021/10/21 03:06:05;;;;;;;9.40;2.80;;;12.20;99.90;;;;;;5047492;28;19929;-63
2021/10/21 03:08:31;;;;;;;;;;;12.10;99.90;;;;;;5047031;28;20048;-63
2021/10/21 03:10:56;;;;;;;7.70;0.90;;;12.00;99.90;;;;;;5046777;28;19964;-62
2021/10/21 03:13:22;;;;;;;;;;;11.90;99.90;;;;;;5049249;28;20048;-63
2021/10/21 03:15:48;;;;;;;10.30;4.10;;;11.90;99.90;;;;;;5047378;28;20380;-63
2021/10/21 03:18:13;;;;;;;;;;;11.80;99.90;;;;;;5047633;28;20037;-63
2021/10/21 03:20:39;;;;;;;6.82;2.13;;;11.70;99.90;;;;;;5046540;28;19924;-63
2021/10/21 03:23:04;;;;;;;;;;;11.70;99.90;;;;;;5040581;28;20044;-63
2021/10/21 03:25:30;;;;;;;23.98;9.85;;;11.70;99.90;;;;;;5042747;28;20425;-63
2021/10/21 03:27:57;;;;;;;;;;;11.60;99.90;;;;;;5050041;28;20087;-64
2021/10/21 03:30:23;;;;;;;7.10;1.52;;;11.60;99.90;;;;;;5045771;28;19921;-63
2021/10/21 03:32:49;;;;;;;;;;;11.50;99.90;;;;;;5050026;28;20044;-63
2021/10/21 03:35:15;;;;;;;3.35;1.30;;;11.50;99.90;;;;;;5048976;28;19986;-62
2021/10/21 03:37:40;;;;;;;;;;;11.50;99.90;;;;;;5048872;28;20044;-62
2021/10/21 03:40:07;;;;;;;2.80;0.90;;;11.50;99.90;;;;;;5049480;28;19917;-63
2021/10/21 03:42:33;;;;;;;8.48;0.90;;;11.40;99.90;;;;;;5048915;28;20516;-63
2021/10/21 03:44:58;;;;;;;;;;;11.40;99.90;;;;;;5048204;28;20037;-62
2021/10/21 03:47:25;;;;;;;2.17;0.65;;;11.30;99.90;;;;;;5045205;28;19925;-63
2021/10/21 03:49:51;;;;;;;2.85;0.82;;;11.30;99.90;;;;;;5047945;28;20055;-63
2021/10/21 03:52:18;;;;;;;12.07;0.60;;;11.30;99.90;;;;;;5045493;28;20056;-61
2021/10/21 03:54:45;;;;;;;2.75;0.60;;;11.30;99.90;;;;;;5049115;28;20083;-63
2021/10/21 03:57:11;;;;;;;6.80;0.73;;;11.30;99.90;;;;;;5052182;28;20451;-64
2021/10/21 03:59:37;;;;;;;3.95;0.60;;;11.30;99.90;;;;;;5042022;28;20048;-64
2021/10/21 04:02:02;;;;;;;;;;;11.20;99.90;;;;;;5051547;28;20631;-63
2021/10/21 04:04:28;;;;;;;2.75;0.70;;;11.20;99.90;;;;;;5050125;28;19917;-63
2021/10/21 04:06:53;;;;;;;;;;;11.20;99.90;;;;;;5050068;28;20060;-63
2021/10/21 04:09:19;;;;;;;3.42;0.70;;;11.20;99.90;;;;;;5052372;28;19917;-63
2021/10/21 04:11:45;;;;;;;;;;;11.20;99.90;;;;;;5052917;28;20659;-61
2021/10/21 04:14:10;;;;;;;8.27;0.70;;;11.20;99.90;;;;;;5044848;28;19917;-63
2021/10/21 04:16:36;;;;;;;;;;;11.20;99.90;;;;;;5049276;28;20567;-62
2021/10/21 04:19:01;;;;;;;3.60;0.73;;;11.10;99.90;;;;;;5052429;28;19981;-63
2021/10/21 04:21:27;;;;;;;;;;;11.10;99.90;;;;;;5053257;28;20029;-63
2021/10/21 04:23:55;;;;;;;2.30;0.65;;;10.90;99.90;;;;;;5044008;28;19923;-63
2021/10/21 04:26:20;;;;;;;4.53;0.93;;;10.70;99.90;;;;;;5050257;28;20086;-63
2021/10/21 04:28:46;;;;;;;;;;;10.60;99.90;;;;;;5051326;28;20068;-63
2021/10/21 04:31:12;;;;;;;2.47;0.70;;;10.60;99.90;;;;;;5047837;28;19917;-63
2021/10/21 04:33:37;;;;;;;;;;;10.60;99.90;;;;;;5049004;28;20052;-64
2021/10/21 04:36:03;;;;;;;5.95;0.88;;;10.60;99.90;;;;;;5049281;28;19999;-64
2021/10/21 04:38:28;;;;;;;;;;;10.60;99.90;;;;;;5051379;28;20072;-64
2021/10/21 04:40:54;;;;;;;8.05;3.58;;;10.60;99.90;;;;;;5049439;28;19917;-65
2021/10/21 04:43:20;;;;;;;;;;;10.60;99.90;;;;;;5048284;28;20073;-65
2021/10/21 04:45:46;;;;;;;1.90;0.60;;;10.50;99.90;;;;;;5047317;28;20030;-63
2021/10/21 04:48:11;;;;;;;7.35;0.85;;;10.40;99.90;;;;;;5052128;28;20041;-64
2021/10/21 04:50:37;;;;;;;;;;;10.50;99.90;;;;;;5052244;28;20061;-64
2021/10/21 04:53:03;;;;;;;2.80;0.70;;;10.50;99.90;;;;;;5052025;28;19916;-65
2021/10/21 04:55:34;;;;;;;5.38;0.55;;;10.50;99.90;;;;;;5051536;28;20037;-64
2021/10/21 04:58:00;;;;;;;7.07;3.95;;;10.50;99.90;;;;;;5050915;28;20052;-64
2021/10/21 05:00:25;;;;;;;;;;;10.50;99.90;;;;;;5042264;28;20049;-64
2021/10/21 05:02:51;;;;;;;3.63;0.70;;;10.40;99.90;;;;;;5051987;28;20433;-63
2021/10/21 05:05:16;;;;;;;;;;;10.30;99.90;;;;;;5051656;28;20033;-64
2021/10/21 05:07:42;;;;;;;7.63;0.77;;;10.20;99.90;;;;;;5048647;28;20066;-64
2021/10/21 05:10:08;;;;;;;;;;;10.20;99.90;;;;;;5049367;28;20079;-63
2021/10/21 05:12:33;;;;;;;6.80;0.85;;;10.20;99.90;;;;;;5047389;28;20366;-62
2021/10/21 05:14:59;;;;;;;5.07;0.68;;;10.20;99.90;;;;;;5048392;28;20037;-63
2021/10/21 05:17:25;;;;;;;2.55;0.57;;;10.10;99.90;;;;;;5048225;28;20076;-63
2021/10/21 05:19:51;;;;;;;4.68;0.50;;;10.10;99.90;;;;;;5048739;28;20041;-62
2021/10/21 05:22:17;;;;;;;;;;;10.00;99.90;;;;;;5047658;28;20362;-62
2021/10/21 05:24:42;;;;;;;13.88;5.68;;;9.90;99.90;;;;;;5040479;28;19967;-63
2021/10/21 05:27:10;;;;;;;;;;;9.80;99.90;;;;;;5050752;28;20106;-64
2021/10/21 05:29:36;;;;;;;6.25;1.30;;;9.80;99.90;;;;;;5048370;28;20469;-62
2021/10/21 05:32:06;;;;;;;;;;;9.70;99.90;;;;;;5048283;28;20033;-62
2021/10/21 05:34:37;;;;;;;6.38;0.52;;;9.60;99.90;;;;;;5046313;28;19963;-62
2021/10/21 05:37:04;;;;;;;4.82;1.02;;;9.60;99.90;;;;;;5049884;28;20076;-62
2021/10/21 05:39:30;;;;;;;1.63;0.50;;;9.50;99.90;;;;;;5046354;28;20526;-62
2021/10/21 05:41:57;;;;;;;2.60;0.88;;;9.50;99.90;;;;;;5050361;28;20045;-63
2021/10/21 05:44:22;;;;;;;4.63;0.70;;;9.50;99.90;;;;;;5050774;28;20053;-63
2021/10/21 05:46:49;;;;;;;;;;;9.50;99.90;;;;;;5047139;28;20562;-63
2021/10/21 05:49:15;;;;;;;5.22;0.50;;;9.40;99.90;;;;;;5049860;28;19916;-63
2021/10/21 05:51:41;;;;;;;4.53;0.82;;;9.40;99.90;;;;;;5051011;28;20037;-62
2021/10/21 05:54:06;;;;;;;;;;;9.40;99.90;;;;;;5050985;28;20120;-64
2021/10/21 05:56:32;;;;;;;4.15;1.25;;;9.30;99.90;;;;;;5050187;28;19916;-64
2021/10/21 05:58:58;;;;;;;7.50;0.93;;;9.30;99.90;;;;;;5046356;28;20160;-64
2021/10/21 06:01:23;;;;;;;;;;;9.30;99.90;;;;;;5046067;28;20492;-63
2021/10/21 06:03:49;;;;;;;5.22;0.88;;;9.30;99.90;;;;;;5049377;28;19917;-64
2021/10/21 06:06:14;;;;;;;;;;;9.20;99.90;;;;;;5048536;28;20504;-62
2021/10/21 06:08:40;;;;;;;0.60;0.25;;;9.20;99.90;;;;;;5046415;28;19921;-62
2021/10/21 06:11:08;;;;;;;;;;;9.20;99.90;;;;;;5048372;28;20045;-62
2021/10/21 06:13:34;;;;;;;2.22;0.40;;;9.20;99.90;;;;;;5044696;28;19920;-63
2021/10/21 06:16:00;;;;;;;3.05;0.38;;;9.20;99.90;;;;;;5043836;28;20037;-63
2021/10/21 06:18:26;;;;;;;4.68;0.50;;;9.20;99.90;;;;;;5047486;28;20052;-63
2021/10/21 06:20:52;;;;;;;;;;;9.20;99.90;;;;;;5048101;28;20067;-62
2021/10/21 06:23:17;;;;;;;0.38;0.22;;;9.20;99.90;;;;;;5046294;28;19987;-63
2021/10/21 06:25:43;;;;;;;;;;;9.10;99.90;;;;;;5049641;28;20048;-64
2021/10/21 06:28:09;;;;;;;0.77;0.25;;;9.20;99.90;;;;;;5049667;28;20380;-62
2021/10/21 06:30:35;;;;;;;;;;;9.10;99.90;;;;;;5046125;28;20048;-61
2021/10/21 06:33:03;;;;;;;3.13;0.28;;;9.10;99.90;;;;;;5049151;28;19923;-62
2021/10/21 06:35:29;;;;;;;2.63;0.32;;;9.10;99.90;;;;;;5049100;28;20040;-62
2021/10/21 06:37:55;;;;;;;1.73;0.30;;;9.10;99.90;;;;;;5047165;28;20044;-62
2021/10/21 06:40:20;;;;;;;;;;;9.10;99.90;;;;;;5048080;28;20475;-62
2021/10/21 06:42:46;;;;;;;1.65;0.20;;;9.10;99.90;;;;;;5049371;28;20305;-63
2021/10/21 06:45:12;;;;;;;3.30;0.47;;;9.10;99.90;;;;;;5040302;28;20136;-62
2021/10/21 06:47:38;;;;;;;;;;;9.10;99.90;;;;;;5047608;28;20075;-62
2021/10/21 06:50:04;;;;;;;0.43;0.20;;;9.20;99.90;;;;;;5048173;28;19925;-63
2021/10/21 06:52:30;;;;;;;1.90;0.30;;;9.20;99.90;;;;;;5047770;28;20040;-63
2021/10/21 06:54:55;;;;;;;3.40;0.30;;;9.20;99.90;;;;;;5049766;28;20059;-62
2021/10/21 06:57:21;;;;;;;;;;;9.20;99.90;;;;;;5045925;28;20045;-63
2021/10/21 06:59:47;;;;;;;0.82;0.20;;;9.20;99.90;;;;;;5043623;28;19970;-62
2021/10/21 07:02:13;;;;;;;1.17;0.20;;;9.20;99.90;;;;;;5038638;28;20141;-63
2021/10/21 07:04:38;;;;;;;2.15;0.30;;;9.10;99.90;;;;;;5038019;28;20045;-62
2021/10/21 07:07:04;;;;;;;;;;;9.20;99.90;;;;;;5040962;28;20108;-63
2021/10/21 07:09:36;;;;;;;3.40;0.68;;;9.10;99.90;;;;;;5049571;28;19917;-63
2021/10/21 07:12:05;;;;;;;0.82;0.13;;;9.20;99.90;;;;;;5045801;28;20044;-62
2021/10/21 07:14:33;;;;;;;1.52;0.20;;;9.10;99.90;;;;;;5037435;28;20037;-62
2021/10/21 07:16:59;;;;;;;0.28;0.17;;;9.20;99.90;;;;;;5038741;28;20455;-63
2021/10/21 07:19:24;;;;;;;;;;;9.20;99.90;;;;;;5039999;28;20045;-64
2021/10/21 07:21:50;;;;;;;1.25;0.22;;;9.10;99.90;;;;;;5035440;28;20368;-64
2021/10/21 07:24:15;;;;;;;;;;;9.10;99.90;;;;;;5029010;28;20136;-64
2021/10/21 07:26:42;;;;;;;0.80;0.25;;;9.00;99.90;;;;;;5028213;28;20058;-64
2021/10/21 07:29:08;;;;;;;4.20;0.25;;;8.90;99.90;;;;;;5048337;28;20116;-64
2021/10/21 07:31:33;;;;;;;;;;;8.80;99.90;;;;;;5048949;28;20627;-63
2021/10/21 07:33:59;;;;;;;0.47;0.20;;;8.70;99.90;;;;;;5051857;28;19917;-63
2021/10/21 07:36:25;;;;;;;3.58;0.30;;;8.70;99.90;;;;;;5052314;28;20037;-64
2021/10/21 07:38:51;;;;;;;;;;;8.60;99.90;;;;;;5050845;28;20090;-64
2021/10/21 07:41:18;;;;;;;0.55;0.20;;;8.60;99.90;;;;;;5050127;28;19967;-63
2021/10/21 07:43:43;;;;;;;0.50;0.20;;;8.60;99.90;;;;;;5035298;28;20048;-64
2021/10/21 07:46:09;;;;;;;;;;;8.60;99.90;;;;;;5043283;28;20063;-63
2021/10/21 07:48:35;;;;;;;0.75;0.30;;;8.50;99.90;;;;;;5050632;28;20074;-60
2021/10/21 07:51:01;;;;;;;0.55;0.30;;;8.50;99.90;;;;;;5044807;28;20041;-60
2021/10/21 07:53:27;;;;;;;;;;;8.50;99.90;;;;;;5044052;28;20044;-57
2021/10/21 07:55:53;;;;;;;5.18;1.00;;;8.50;99.90;;;;;;5051581;28;19928;-59
2021/10/21 07:58:19;;;;;;;4.85;2.85;;;8.50;99.90;;;;;;5048577;28;20033;-63
2021/10/21 08:00:45;;;;;;;;;;;8.50;99.90;;;;;;5045664;28;20033;-61
2021/10/21 08:03:10;;;;;;;1.92;0.73;;;8.40;99.90;;;;;;5044832;28;19974;-62
2021/10/21 08:05:35;;;;;;;;;;;8.40;99.90;;;;;;5051327;28;20079;-62
2021/10/21 08:08:04;;;;;;;3.35;0.68;;;8.40;99.90;;;;;;5049364;28;20273;-64
2021/10/21 08:10:30;;;;;;;2.13;0.52;;;8.30;99.90;;;;;;5044349;28;20049;-64
2021/10/21 08:12:55;;;;;;;4.03;0.85;;;8.30;99.90;;;;;;5045029;28;20068;-64
2021/10/21 08:15:22;;;;;;;;;;;8.10;99.90;;;;;;5045092;28;20065;-62
2021/10/21 08:17:49;;;;;;;2.78;0.43;;;7.90;99.90;;;;;;5046473;28;19916;-63
2021/10/21 08:20:15;;;;;;;0.45;0.20;;;7.80;99.90;;;;;;5049761;28;20068;-62
2021/10/21 08:22:44;;;;;;;;;;;7.60;99.90;;;;;;5049343;28;20126;-63
2021/10/21 08:25:11;;;;;;;0.95;0.20;;;7.50;99.90;;;;;;5040016;28;20020;-62
2021/10/21 08:27:37;;;;;;;2.33;0.45;;;7.30;99.90;;;;;;5047001;28;20044;-63
2021/10/21 08:30:04;;;;;;;1.48;0.38;;;7.10;99.90;;;;;;5048099;28;20565;-62
2021/10/21 08:32:30;;;;;;;2.00;0.55;;;7.10;99.90;;;;;;5041290;28;20099;-63
2021/10/21 08:34:57;;;;;;;;;;;7.10;99.90;;;;;;5048305;28;20042;-62
2021/10/21 08:37:23;;;;;;;5.80;0.50;;;7.10;99.90;;;;;;5033303;28;19921;-63
2021/10/21 08:39:48;;;;;;;;;;;7.00;99.90;;;;;;5044765;28;20041;-62
2021/10/21 08:42:16;;;;;;;4.78;0.80;;;7.00;99.90;;;;;;5040037;28;19971;-62
2021/10/21 08:44:42;;;;;;;0.98;0.50;;;7.10;99.90;;;;;;5047532;28;20037;-62
2021/10/21 08:47:09;;;;;;;6.68;0.98;;;7.10;99.90;;;;;;5046165;28;20128;-62
2021/10/21 08:49:41;;;;;;;4.68;0.88;;;7.10;99.90;;;;;;5046392;28;20040;-62
2021/10/21 08:52:07;;;;;;;4.38;1.00;;;7.20;99.90;;;;;;5042170;28;20029;-62
2021/10/21 08:54:33;;;;;;;5.45;0.93;;;7.20;99.90;;;;;;5042090;28;20104;-63
2021/10/21 08:56:59;;;;;;;;;;;7.20;99.90;;;;;;5050576;28;20040;-63
2021/10/21 08:59:25;;;;;;;4.15;1.15;;;7.20;99.90;;;;;;5055313;28;19968;-62
2021/10/21 09:02:00;;;;;;;;;;;7.30;99.90;;;;;;5047036;28;20562;-64
2021/10/21 09:04:36;;;;;;;6.93;1.60;;;7.30;99.90;;;;;;5045856;28;20391;-63
2021/10/21 09:09:33;;;;;;;6.10;1.50;;;7.40;99.90;;;;;;5037632;28;20092;-63
2021/10/21 09:12:02;;;;;;;;;;;7.30;99.90;;;;;;5046014;28;20528;-64
2021/10/21 09:14:36;;;;;;;10.05;2.13;;;7.30;99.90;;;;;;5045683;28;19916;-63
2021/10/21 09:17:03;;;;;;;9.20;1.90;;;7.20;99.90;;;;;;5038889;28;20076;-63
2021/10/21 09:19:29;;;;;;;11.82;1.55;;;7.30;99.90;;;;;;5047272;28;20051;-63
2021/10/21 09:21:55;;;;;;;4.10;1.58;;;7.20;99.90;;;;;;5041303;28;20130;-63
2021/10/21 09:24:22;;;;;;;;;;;7.20;99.90;;;;;;5038329;28;20069;-63
2021/10/21 09:27:09;;;;;;;6.40;1.27;;;7.30;99.90;;;;;;5040710;28;19932;-63
2021/10/21 09:29:37;;;;;;;9.88;1.40;;;7.30;99.90;;;;;;5046061;28;20056;-65
2021/10/21 09:32:08;;;;;;;7.65;1.40;;;7.40;99.90;;;;;;5048860;28;20052;-64
2021/10/21 09:35:07;;;;;;;7.78;1.70;;;7.40;99.90;;;;;;5048403;28;20052;-64
2021/10/21 09:37:40;;;;;;;7.75;1.70;;;7.50;99.90;;;;;;5014951;28;20045;-65
2021/10/21 09:40:26;;;;;;;8.45;1.80;;;7.60;99.90;;;;;;5029591;28;20586;-64
2021/10/21 09:42:59;;;;;;;8.60;1.95;;;7.60;99.90;;;;;;5031023;28;20116;-64
2021/10/21 09:45:27;;;;;;;11.18;2.85;;;7.50;99.90;;;;;;5030507;28;20049;-65
2021/10/21 09:47:58;;;;;;;13.55;3.00;;;7.70;99.90;;;;;;5028096;28;20050;-63
2021/10/21 09:50:32;;;;;;;8.98;2.65;;;7.70;99.90;;;;;;5025811;28;20131;-64
2021/10/21 09:53:22;;;;;;;9.15;2.53;;;7.70;99.90;;;;;;5034462;28;20480;-63
2021/10/21 09:56:02;;;;;;;13.15;2.47;;;7.70;99.90;;;;;;5045140;28;20041;-63
2021/10/21 09:58:30;;;;;;;7.80;2.40;;;7.80;99.90;;;;;;5049372;28;20048;-63
2021/10/21 10:01:10;;;;;;;5.68;2.15;;;7.80;99.90;;;;;;5041552;28;20037;-64
2021/10/21 10:03:42;;;;;;;8.02;2.13;;;7.90;99.90;;;;;;5040997;28;20515;-62
2021/10/21 10:06:09;;;;;;;14.50;2.45;;;8.00;99.90;;;;;;5040770;28;20048;-63
2021/10/21 10:08:35;;;;;;;6.20;1.85;;;8.10;99.90;;;;;;5047423;28;20558;-61
2021/10/21 10:11:03;;;;;;;9.27;1.92;;;8.20;99.90;;;;;;5048137;28;20033;-62
2021/10/21 10:13:29;;;;;;;6.93;2.08;;;8.30;99.90;;;;;;5050389;28;20069;-63
2021/10/21 10:15:58;;;;;;;;;;;8.40;99.90;;;;;;5044006;28;20069;-63
2021/10/21 10:18:28;;;;;;;12.18;2.50;;;8.30;99.90;;;;;;5045687;28;19925;-63
2021/10/21 10:21:00;;;;;;;15.27;2.28;;;8.30;99.90;;;;;;5041983;28;20091;-64
2021/10/21 10:23:26;;;;;;;12.38;2.78;;;8.50;99.90;;;;;;5049114;28;20048;-63
2021/10/21 10:25:52;;;;;;;15.15;2.33;;;8.40;99.90;;;;;;5028799;28;20063;-63
2021/10/21 10:28:18;;;;;;;;;;;8.40;99.90;;;;;;5040760;28;20041;-63
2021/10/21 10:30:56;;;;;;;16.15;3.58;;;8.40;99.90;;;;;;5048868;28;19916;-63
2021/10/21 10:33:34;;;;;;;13.85;2.58;;;8.50;99.90;;;;;;5049991;28;20049;-63
2021/10/21 10:36:22;;;;;;;8.68;3.03;;;8.40;99.90;;;;;;5048399;28;20052;-63
2021/10/21 10:38:49;;;;;;;12.07;2.63;;;8.50;99.90;;;;;;5049298;28;20099;-63
2021/10/21 10:41:40;;;;;;;13.13;2.83;;;8.60;99.90;;;;;;5042106;28;20396;-64
2021/10/21 10:44:06;;;;;;;10.15;2.13;;;8.70;99.90;;;;;;5029696;28;20041;-63
2021/10/21 10:46:46;;;;;;;;;;;8.70;99.90;;;;;;5029205;28;20046;-64
2021/10/21 10:49:41;;;;;;;8.73;2.30;;;8.60;99.90;;;;;;5048659;28;20490;-63
2021/10/21 10:52:13;;;;;;;12.27;2.42;;;8.60;99.90;;;;;;5029578;28;20076;-63
2021/10/21 10:54:39;;;;;;;14.27;2.30;;;8.60;99.90;;;;;;5029909;28;20048;-63
2021/10/21 10:57:07;;;;;;;;;;;8.50;99.90;;;;;;5029470;28;20041;-62
2021/10/21 10:59:33;;;;;;;8.13;1.92;;;8.50;99.90;;;;;;5057281;28;19921;-63
2021/10/21 11:02:20;;;;;;;9.63;1.92;;;8.60;99.90;;;;;;5048075;28;20568;-63
2021/10/21 11:04:52;;;;;;;7.45;2.13;;;8.70;99.90;;;;;;5048537;28;20725;-63
2021/10/21 11:07:23;;;;;;;13.07;2.10;;;8.70;99.90;;;;;;5046889;28;20419;-63
2021/10/21 11:09:50;;;;;;;9.90;2.75;;;8.70;99.90;;;;;;5046046;28;20037;-63
2021/10/21 11:12:21;;;;;;;8.20;1.95;;;8.70;99.90;;;;;;5063882;28;20405;-63
2021/10/21 11:14:54;;;;;;;11.90;1.77;;;8.80;99.90;;;;;;5039680;28;20088;-63
2021/10/21 11:17:43;;;;;;;4.30;1.65;;;9.10;99.90;;;;;;5050385;28;20080;-63
2021/10/21 11:20:27;;;;;;;10.35;1.58;;;9.30;99.90;;;;;;5041066;28;20099;-63
2021/10/21 11:23:03;;;;;;;8.00;1.85;;;9.30;99.90;;;;;;5042890;28;20037;-63
2021/10/21 11:25:31;;;;;;;11.85;2.30;;;9.40;99.90;;;;;;5037109;28;20056;-63
2021/10/21 11:27:58;;;;;;;7.50;1.27;;;9.50;99.90;;;;;;5038115;28;20053;-62
2021/10/21 11:30:26;;;;;;;9.57;1.67;;;9.60;99.90;;;;;;5041256;28;20052;-64
2021/10/21 11:32:53;;;;;;;14.05;1.60;;;9.40;99.90;;;;;;5040784;28;20048;-63
2021/10/21 11:35:21;;;;;;;7.53;1.20;;;9.40;99.90;;;;;;5045371;28;20476;-66
2021/10/21 11:37:56;;;;;;;4.80;1.20;;;9.40;99.90;;;;;;5041495;28;20099;-62
2021/10/21 11:40:27;;;;;;;6.50;1.00;;;9.40;99.90;;;;;;5042343;28;20041;-63
2021/10/21 11:42:58;;;;;;;5.00;1.27;;;9.30;99.90;;;;;;5035500;28;20037;-63
2021/10/21 11:45:36;;;;;;;4.97;1.25;;;9.30;99.90;;;;;;5028419;28;20050;-64
2021/10/21 11:48:06;;;;;;;6.55;1.17;;;9.20;99.90;;;;;;5034181;28;20069;-64
2021/10/21 11:50:38;;;;;;;6.97;1.35;;;9.10;99.90;;;;;;5041452;28;20126;-64
2021/10/21 11:53:06;;;;;;;8.73;1.50;;;9.20;99.90;;;;;;5047230;28;20037;-63
2021/10/21 11:55:32;;;;;;;5.43;1.52;;;9.10;99.90;;;;;;5032898;28;20041;-64
2021/10/21 11:58:07;;;;;;;12.82;3.90;;;8.90;99.90;;;;;;5045915;28;20043;-63
2021/10/21 12:00:32;;;;;;;7.25;1.30;;;8.90;99.90;;;;;;5043888;28;20069;-63
2021/10/21 12:02:59;;;;;;;;;;;8.70;99.90;;;;;;5046170;28;20102;-63
2021/10/21 12:05:26;;;;;;;12.98;2.05;;;8.70;99.90;;;;;;5042841;28;19921;-63
2021/10/21 12:07:53;;;;;;;5.68;1.13;;;8.60;99.90;;;;;;5040969;28;20049;-64
2021/10/21 12:10:26;;;;;;;10.70;2.10;;;8.50;99.90;;;;;;5043489;28;20128;-63
2021/10/21 12:12:52;;;;;;;8.07;2.05;;;8.40;99.90;;;;;;5047822;28;20048;-63
2021/10/21 12:15:19;;;;;;;;;;;8.30;99.90;;;;;;5051046;28;20087;-62
2021/10/21 12:17:46;;;;;;;8.85;1.70;;;8.30;99.90;;;;;;5031865;28;20470;-62
2021/10/21 12:20:13;;;;;;;7.00;2.55;;;8.40;99.90;;;;;;5032150;28;20049;-63
2021/10/21 12:22:38;;;;;;;8.75;2.10;;;8.50;99.90;;;;;;5047837;28;20037;-62
2021/10/21 12:25:06;;;;;;;;;;;8.40;99.90;;;;;;5051997;28;20115;-62
2021/10/21 12:27:32;;;;;;;10.23;3.00;;;8.50;99.90;;;;;;5053209;28;20023;-63
2021/10/21 12:30:03;;;;;;;;;;;8.50;99.90;;;;;;5043731;28;20827;-62
2021/10/21 12:32:28;;;;;;;4.07;1.90;;;8.50;99.90;;;;;;5051588;28;20334;-62
2021/10/21 12:35:04;;;;;;;;;;;8.50;99.90;;;;;;5052653;28;20048;-62
2021/10/21 12:37:39;;;;;;;7.03;1.83;;;8.60;99.90;;;;;;5049239;28;19916;-63
2021/10/21 12:40:14;;;;;;;6.28;1.25;;;8.60;99.90;;;;;;5046744;28;20045;-63
2021/10/21 12:42:40;;;;;;;4.68;1.45;;;8.40;99.90;;;;;;5037196;28;20037;-62
2021/10/21 12:45:06;;;;;;;;;;;8.50;99.90;;;;;;5029803;28;20099;-62
2021/10/21 12:47:34;;;;;;;8.88;1.42;;;8.40;99.90;;;;;;5031319;28;19998;-63
2021/10/21 12:50:11;;;;;;;6.93;1.50;;;8.40;99.90;;;;;;5040948;28;20045;-64
2021/10/21 12:52:45;;;;;;;6.70;1.58;;;8.30;99.90;;;;;;5051780;28;20059;-63
2021/10/21 12:55:18;;;;;;;6.38;1.05;;;8.20;99.90;;;;;;5051352;28;20037;-63
2021/10/21 12:57:47;;;;;;;8.50;1.35;;;8.10;99.90;;;;;;5050611;28;20068;-63
2021/10/21 13:00:23;;;;;;;5.35;1.10;;;8.00;99.90;;;;;;5041612;28;20033;-64
2021/10/21 13:03:21;;;;;;;6.13;2.03;;;7.90;99.90;;;;;;5051759;28;20041;-63
2021/10/21 13:05:55;;;;;;;2.13;0.68;;;7.80;99.90;;;;;;5041169;28;20103;-64
2021/10/21 13:08:21;;;;;;;3.88;0.88;;;7.70;99.90;;;;;;5047901;28;20036;-63
2021/10/21 13:10:57;;;;;;;2.28;0.50;;;7.70;99.90;;;;;;5044223;28;20100;-63
2021/10/21 13:13:30;;;;;;;1.00;0.22;;;7.60;99.90;;;;;;5031027;28;20053;-63
2021/10/21 13:15:57;;;;;;;0.77;0.30;;;7.60;99.90;;;;;;5029855;28;20061;-64
2021/10/21 13:18:23;;;;;;;5.57;0.35;;;7.60;99.90;;;;;;5028076;28;20128;-63
2021/10/21 13:20:49;;;;;;;;;;;7.60;99.90;;;;;;5033618;28;20176;-62